createdAt,value
2019-01-28T00:01:10.650Z,0.50
2019-01-28T00:03:41.950Z,0.60
2019-01-28T00:06:11.101Z,0.60
2019-01-28T00:08:40.563Z,0.60
2019-01-28T00:11:10.217Z,0.60
2019-01-28T00:13:39.579Z,0.60
2019-01-28T00:16:11.777Z,0.60
2019-01-28T00:18:41.171Z,0.60
2019-01-28T00:21:13.184Z,0.60
2019-01-28T00:23:42.600Z,0.60
2019-01-28T00:26:11.939Z,0.60
2019-01-28T00:28:43.051Z,0.60
2019-01-28T00:31:12.408Z,0.60
2019-01-28T00:33:42.599Z,0.60
2019-01-28T00:36:13.111Z,0.60
2019-01-28T00:38:42.463Z,0.70
2019-01-28T00:41:12.125Z,0.70
2019-01-28T00:43:41.421Z,0.70
2019-01-28T00:46:11.079Z,0.70
2019-01-28T00:48:40.399Z,0.80
2019-01-28T00:51:09.759Z,0.70
2019-01-28T00:53:41.375Z,0.80
2019-01-28T00:56:10.818Z,0.70
2019-01-28T00:58:40.207Z,0.80
2019-01-28T01:01:09.523Z,0.80
2019-01-28T01:03:40.723Z,0.80
2019-01-28T01:07:04.222Z,0.80
2019-01-28T01:09:33.587Z,0.80
2019-01-28T01:12:02.911Z,0.80
2019-01-28T01:14:32.244Z,0.80
2019-01-28T01:17:01.663Z,0.90
2019-01-28T01:19:30.979Z,0.90
2019-01-28T01:22:00.295Z,0.90
2019-01-28T01:24:29.573Z,0.90
2019-01-28T01:26:58.873Z,0.90
2019-01-28T01:29:28.222Z,0.80
2019-01-28T01:31:57.547Z,0.80
2019-01-28T01:34:26.855Z,0.80
2019-01-28T01:36:56.411Z,0.90
2019-01-28T01:39:25.763Z,0.90
2019-01-28T01:41:55.071Z,0.90
2019-01-28T01:44:24.510Z,0.90
2019-01-28T01:46:53.862Z,0.90
2019-01-28T01:49:23.180Z,0.90
2019-01-28T01:51:52.544Z,0.90
2019-01-28T01:54:21.952Z,0.90
2019-01-28T01:56:51.334Z,0.80
2019-01-28T01:59:20.739Z,0.80
2019-01-28T02:01:50.211Z,0.80
2019-01-28T02:04:19.577Z,0.70
2019-01-28T02:06:48.889Z,0.60
2019-01-28T02:09:18.319Z,0.60
2019-01-28T02:11:47.624Z,0.60
2019-01-28T02:14:16.960Z,0.60
2019-01-28T02:16:46.338Z,0.60
2019-01-28T02:19:15.732Z,0.60
2019-01-28T02:21:45.096Z,0.60
2019-01-28T02:24:14.476Z,0.60
2019-01-28T02:26:43.900Z,0.50
2019-01-28T02:29:13.117Z,0.50
2019-01-28T02:31:42.495Z,0.50
2019-01-28T02:34:11.775Z,0.50
2019-01-28T02:36:41.109Z,0.50
2019-01-28T02:39:10.636Z,0.50
2019-01-28T02:41:40.003Z,0.50
2019-01-28T02:44:09.278Z,0.50
2019-01-28T02:46:38.529Z,0.50
2019-01-28T02:49:07.854Z,0.50
2019-01-28T02:51:37.227Z,0.40
2019-01-28T02:54:06.613Z,0.40
2019-01-28T02:56:36.016Z,0.40
2019-01-28T02:59:05.506Z,0.40
2019-01-28T03:01:34.859Z,0.40
2019-01-28T03:04:04.365Z,0.30
2019-01-28T03:06:33.784Z,0.30
2019-01-28T03:09:04.485Z,0.30
2019-01-28T03:11:33.840Z,0.30
2019-01-28T03:14:03.184Z,0.30
2019-01-28T03:16:32.536Z,0.30
2019-01-28T03:19:01.940Z,0.30
2019-01-28T03:21:31.332Z,0.30
2019-01-28T03:24:00.711Z,0.20
2019-01-28T03:26:30.241Z,0.30
2019-01-28T03:28:59.592Z,0.20
2019-01-28T03:31:28.960Z,0.20
2019-01-28T03:33:58.362Z,0.30
2019-01-28T03:36:27.770Z,0.20
2019-01-28T03:38:57.147Z,0.20
2019-01-28T03:41:26.500Z,0.20
2019-01-28T03:43:55.926Z,0.20
2019-01-28T03:46:25.303Z,0.20
2019-01-28T03:48:57.467Z,0.20
2019-01-28T03:51:26.822Z,0.20
2019-01-28T03:53:56.312Z,0.20
2019-01-28T03:56:25.837Z,0.20
2019-01-28T03:58:55.446Z,0.20
2019-01-28T04:01:26.595Z,0.20
2019-01-28T04:03:56.271Z,0.10
2019-01-28T04:06:25.664Z,0.10
2019-01-28T04:08:55.000Z,0.10
2019-01-28T04:11:24.479Z,0.10
2019-01-28T04:14:12.853Z,0.10
2019-01-28T04:16:42.257Z,0.10
2019-01-28T04:19:11.693Z,0.10
2019-01-28T04:21:41.086Z,0.20
2019-01-28T04:24:10.415Z,0.20
2019-01-28T04:26:39.815Z,0.20
2019-01-28T04:29:09.187Z,0.20
2019-01-28T04:31:38.517Z,0.20
2019-01-28T04:34:07.865Z,0.30
2019-01-28T04:36:37.253Z,0.30
2019-01-28T04:39:08.652Z,0.30
2019-01-28T04:41:38.007Z,0.20
2019-01-28T04:44:07.332Z,0.30
2019-01-28T04:46:36.673Z,0.30
2019-01-28T04:49:06.047Z,0.30
2019-01-28T04:51:35.417Z,0.30
2019-01-28T04:54:04.868Z,0.30
2019-01-28T04:56:34.231Z,0.30
2019-01-28T04:59:03.539Z,0.30
2019-01-28T05:01:32.922Z,0.30
2019-01-28T05:04:02.286Z,0.30
2019-01-28T05:06:31.649Z,0.30
2019-01-28T05:09:01.103Z,0.30
2019-01-28T05:11:30.392Z,0.30
2019-01-28T05:13:59.871Z,0.20
2019-01-28T05:16:29.203Z,0.20
2019-01-28T05:18:58.533Z,0.20
2019-01-28T05:21:27.899Z,0.20
2019-01-28T05:23:57.191Z,0.10
2019-01-28T05:26:26.605Z,0.10
2019-01-28T05:28:55.905Z,0.10
2019-01-28T05:31:25.407Z,0.10
2019-01-28T05:33:54.721Z,0.10
2019-01-28T05:36:24.085Z,0.10
2019-01-28T05:38:53.477Z,0.10
2019-01-28T05:41:22.874Z,0.00
2019-01-28T05:43:52.279Z,0.00
2019-01-28T05:46:21.599Z,0.00
2019-01-28T05:48:51.061Z,0.00
2019-01-28T05:51:20.444Z,0.00
2019-01-28T05:53:49.871Z,0.00
2019-01-28T05:56:19.245Z,0.00
2019-01-28T05:58:48.630Z,0.00
2019-01-28T06:01:18.052Z,0.00
2019-01-28T06:03:47.575Z,0.00
2019-01-28T06:06:16.979Z,0.00
2019-01-28T06:08:46.422Z,0.00
2019-01-28T06:11:15.710Z,0.00
2019-01-28T06:13:45.113Z,0.00
2019-01-28T06:16:14.522Z,0.10
2019-01-28T06:18:43.896Z,0.10
2019-01-28T06:21:13.280Z,0.10
2019-01-28T06:23:42.583Z,0.10
2019-01-28T06:26:11.963Z,0.10
2019-01-28T06:28:41.298Z,0.10
2019-01-28T06:31:10.701Z,0.10
2019-01-28T06:33:40.125Z,0.10
2019-01-28T06:36:09.607Z,0.10
2019-01-28T06:38:47.646Z,0.10
2019-01-28T06:41:16.869Z,0.10
2019-01-28T06:43:46.237Z,0.10
2019-01-28T06:46:15.592Z,0.10
2019-01-28T06:48:44.959Z,0.20
2019-01-28T06:51:14.264Z,0.20
2019-01-28T06:53:43.633Z,0.20
2019-01-28T06:56:13.023Z,0.20
2019-01-28T06:58:42.366Z,0.20
2019-01-28T07:01:11.722Z,0.20
2019-01-28T07:03:41.025Z,0.30
2019-01-28T07:06:10.429Z,0.30
2019-01-28T07:08:39.884Z,0.30
2019-01-28T07:11:09.203Z,0.30
2019-01-28T07:13:38.696Z,0.40
2019-01-28T07:16:08.147Z,0.40
2019-01-28T07:18:37.533Z,0.40
2019-01-28T07:21:07.005Z,0.40
2019-01-28T07:23:36.467Z,0.50
2019-01-28T07:26:05.867Z,0.50
2019-01-28T07:28:35.307Z,0.60
2019-01-28T07:31:04.796Z,0.60
2019-01-28T07:33:34.176Z,0.60
2019-01-28T07:36:03.524Z,0.60
2019-01-28T07:38:32.893Z,0.60
2019-01-28T07:41:02.212Z,0.70
2019-01-28T07:43:31.646Z,0.60
2019-01-28T07:46:01.033Z,0.60
2019-01-28T07:48:30.472Z,0.60
2019-01-28T07:50:59.920Z,0.70
2019-01-28T07:53:29.361Z,0.70
2019-01-28T07:55:58.718Z,0.70
2019-01-28T07:58:38.613Z,0.70
2019-01-28T08:01:11.909Z,0.70
2019-01-28T08:03:42.528Z,0.70
2019-01-28T08:06:14.090Z,0.70
2019-01-28T08:08:43.574Z,0.70
2019-01-28T08:11:15.118Z,0.80
2019-01-28T08:13:44.418Z,0.80
2019-01-28T08:16:15.152Z,0.80
2019-01-28T08:18:44.746Z,0.80
2019-01-28T08:21:14.103Z,0.80
2019-01-28T08:23:43.315Z,0.80
2019-01-28T08:26:12.706Z,0.80
2019-01-28T08:28:42.044Z,0.80
2019-01-28T08:31:11.567Z,0.80
2019-01-28T08:33:40.834Z,0.90
2019-01-28T08:36:10.121Z,0.90
2019-01-28T08:38:58.527Z,0.90
2019-01-28T08:41:27.922Z,1.00
2019-01-28T08:43:57.286Z,1.00
2019-01-28T08:46:30.304Z,1.00
2019-01-28T08:48:57.810Z,1.10
2019-01-28T08:51:27.232Z,1.10
2019-01-28T08:53:56.621Z,1.10
2019-01-28T08:56:27.117Z,1.10
2019-01-28T08:58:56.407Z,1.10
2019-01-28T09:01:25.842Z,1.20
2019-01-28T09:03:55.275Z,1.10
2019-01-28T09:06:24.802Z,1.20
2019-01-28T09:08:54.231Z,1.20
2019-01-28T09:11:23.678Z,1.20
2019-01-28T09:13:53.079Z,1.20
2019-01-28T09:16:22.497Z,1.20
2019-01-28T09:18:51.890Z,1.20
2019-01-28T09:21:21.235Z,1.20
2019-01-28T09:23:50.599Z,1.30
2019-01-28T09:26:20.024Z,1.30
2019-01-28T09:28:49.411Z,1.30
2019-01-28T09:31:19.056Z,1.30
2019-01-28T09:33:48.379Z,1.30
2019-01-28T09:36:17.802Z,1.40
2019-01-28T09:38:47.236Z,1.30
2019-01-28T09:41:16.655Z,1.30
2019-01-28T09:43:46.093Z,1.30
2019-01-28T09:46:15.579Z,1.20
2019-01-28T09:48:45.131Z,1.20
2019-01-28T09:51:14.559Z,1.20
2019-01-28T09:53:43.989Z,1.20
2019-01-28T09:56:13.380Z,1.20
2019-01-28T09:58:42.847Z,1.20
2019-01-28T10:01:12.162Z,1.20
2019-01-28T10:03:41.579Z,1.10
2019-01-28T10:06:10.967Z,1.10
2019-01-28T10:08:40.366Z,1.10
2019-01-28T10:11:09.732Z,1.10
2019-01-28T10:13:39.095Z,1.10
2019-01-28T10:16:08.527Z,1.20
2019-01-28T10:18:41.842Z,1.20
2019-01-28T10:21:14.905Z,1.30
2019-01-28T10:23:44.248Z,1.30
2019-01-28T10:26:13.736Z,1.30
2019-01-28T10:28:43.206Z,1.30
2019-01-28T10:31:12.588Z,1.40
2019-01-28T10:33:42.125Z,1.50
2019-01-28T10:36:11.600Z,1.60
2019-01-28T10:38:41.019Z,1.60
2019-01-28T10:41:10.360Z,1.60
2019-01-28T10:43:39.883Z,1.60
2019-01-28T10:46:09.337Z,1.60
2019-01-28T10:48:38.752Z,1.60
2019-01-28T10:51:08.271Z,1.60
2019-01-28T10:53:37.580Z,1.70
2019-01-28T10:56:07.234Z,1.70
2019-01-28T10:58:36.637Z,1.70
2019-01-28T11:01:06.167Z,1.70
2019-01-28T11:03:35.627Z,1.70
2019-01-28T11:07:01.448Z,1.80
2019-01-28T11:09:30.547Z,1.80
2019-01-28T11:11:59.686Z,1.80
2019-01-28T11:14:28.777Z,1.80
2019-01-28T11:16:58.098Z,1.80
2019-01-28T11:19:27.232Z,1.80
2019-01-28T11:21:56.325Z,1.90
2019-01-28T11:24:25.378Z,1.90
2019-01-28T11:26:54.779Z,1.90
2019-01-28T11:29:24.085Z,1.90
2019-01-28T11:31:53.638Z,1.90
2019-01-28T11:34:23.084Z,2.00
2019-01-28T11:36:52.407Z,1.90
2019-01-28T11:39:21.762Z,1.90
2019-01-28T11:41:51.445Z,1.90
2019-01-28T11:44:20.940Z,1.80
2019-01-28T11:47:09.532Z,1.80
2019-01-28T11:49:45.147Z,1.70
2019-01-28T11:52:14.531Z,1.70
2019-01-28T11:54:43.928Z,1.70
2019-01-28T11:57:13.364Z,1.80
2019-01-28T11:59:42.791Z,1.80
2019-01-28T12:02:12.154Z,1.80
2019-01-28T12:04:41.390Z,1.80
2019-01-28T12:07:10.686Z,1.80
2019-01-28T12:09:40.074Z,1.80
2019-01-28T12:12:09.482Z,1.80
2019-01-28T12:14:38.940Z,1.80
2019-01-28T12:17:08.286Z,1.90
2019-01-28T12:19:37.584Z,1.90
2019-01-28T12:22:06.939Z,1.90
2019-01-28T12:24:36.323Z,2.00
2019-01-28T12:27:07.684Z,2.00
2019-01-28T12:29:37.126Z,2.10
2019-01-28T12:32:06.602Z,2.10
2019-01-28T12:34:39.786Z,2.20
2019-01-28T12:37:07.052Z,2.20
2019-01-28T12:39:36.442Z,2.20
2019-01-28T12:42:05.894Z,2.20
2019-01-28T12:44:35.329Z,2.20
2019-01-28T12:47:04.772Z,2.20
2019-01-28T12:49:34.201Z,2.20
2019-01-28T12:52:03.587Z,2.20
2019-01-28T12:54:32.886Z,2.20
2019-01-28T12:57:02.237Z,2.20
2019-01-28T12:59:31.551Z,2.20
2019-01-28T13:02:00.919Z,2.20
2019-01-28T13:04:30.176Z,2.10
2019-01-28T13:06:59.560Z,2.10
2019-01-28T13:09:29.015Z,2.10
2019-01-28T13:11:58.356Z,2.10
2019-01-28T13:14:27.774Z,2.10
2019-01-28T13:16:57.111Z,2.10
2019-01-28T13:19:30.349Z,2.10
2019-01-28T13:21:58.487Z,2.10
2019-01-28T13:24:27.837Z,2.10
2019-01-28T13:26:57.261Z,2.10
2019-01-28T13:29:26.567Z,2.20
2019-01-28T13:31:55.869Z,2.10
2019-01-28T13:34:25.250Z,2.20
2019-01-28T13:36:54.668Z,2.20
2019-01-28T13:39:24.241Z,2.20
2019-01-28T13:41:53.630Z,2.20
2019-01-28T13:44:23.041Z,2.20
2019-01-28T13:46:52.509Z,2.20
2019-01-28T13:49:21.918Z,2.20
2019-01-28T13:51:51.311Z,2.20
2019-01-28T13:54:20.711Z,2.20
2019-01-28T13:56:50.129Z,2.20
2019-01-28T13:59:19.535Z,2.20
2019-01-28T14:01:48.842Z,2.20
2019-01-28T14:04:18.347Z,2.20
2019-01-28T14:06:47.949Z,2.20
2019-01-28T14:09:17.271Z,2.20
2019-01-28T14:11:46.694Z,2.20
2019-01-28T14:14:16.137Z,2.20
2019-01-28T14:16:45.579Z,2.20
2019-01-28T14:19:15.004Z,2.10
2019-01-28T14:21:44.319Z,2.10
2019-01-28T14:24:13.700Z,2.10
2019-01-28T14:26:43.155Z,2.10
2019-01-28T14:29:12.862Z,2.10
2019-01-28T14:31:42.288Z,2.10
2019-01-28T14:34:11.792Z,2.10
2019-01-28T14:36:41.289Z,2.10
2019-01-28T14:39:13.717Z,2.10
2019-01-28T14:41:43.368Z,2.10
2019-01-28T14:44:13.560Z,2.00
2019-01-28T14:46:43.044Z,2.00
2019-01-28T14:49:12.430Z,1.90
2019-01-28T14:51:41.847Z,1.90
2019-01-28T14:54:11.310Z,1.90
2019-01-28T14:56:40.757Z,2.00
2019-01-28T14:59:10.117Z,2.00
2019-01-28T15:01:39.603Z,2.00
2019-01-28T15:04:09.874Z,1.90
2019-01-28T15:06:39.387Z,1.90
2019-01-28T15:09:11.814Z,1.90
2019-01-28T15:11:41.333Z,1.90
2019-01-28T15:14:10.926Z,1.90
2019-01-28T15:16:40.255Z,1.90
2019-01-28T15:19:09.683Z,1.90
2019-01-28T15:21:38.884Z,1.80
2019-01-28T15:24:08.365Z,1.90
2019-01-28T15:26:37.827Z,1.90
2019-01-28T15:29:07.125Z,1.90
2019-01-28T15:31:36.420Z,1.90
2019-01-28T15:34:07.372Z,1.80
2019-01-28T15:36:36.841Z,1.80
2019-01-28T15:39:09.160Z,1.80
2019-01-28T15:41:38.758Z,1.80
2019-01-28T15:44:08.180Z,1.80
2019-01-28T15:46:37.590Z,1.80
2019-01-28T15:49:07.023Z,1.80
2019-01-28T15:51:36.387Z,1.80
2019-01-28T15:54:07.059Z,1.70
2019-01-28T15:56:36.447Z,1.70
2019-01-28T15:59:05.775Z,1.70
2019-01-28T16:01:35.176Z,1.60
2019-01-28T16:04:04.494Z,1.60
2019-01-28T16:06:33.900Z,1.60
2019-01-28T16:09:04.578Z,1.50
2019-01-28T16:11:33.960Z,1.50
2019-01-28T16:14:03.421Z,1.50
2019-01-28T16:16:32.995Z,1.40
2019-01-28T16:19:02.330Z,1.40
2019-01-28T16:21:31.771Z,1.40
2019-01-28T16:24:01.567Z,1.40
2019-01-28T16:26:30.959Z,1.40
2019-01-28T16:29:00.312Z,1.30
2019-01-28T16:31:29.689Z,1.30
2019-01-28T16:33:59.034Z,1.30
2019-01-28T16:36:31.065Z,1.30
2019-01-28T16:39:00.476Z,1.30
2019-01-28T16:41:30.731Z,1.20
2019-01-28T16:44:00.122Z,1.20
2019-01-28T16:46:29.499Z,1.20
2019-01-28T16:48:58.886Z,1.20
2019-01-28T16:51:29.994Z,1.20
2019-01-28T16:53:59.266Z,1.20
2019-01-28T16:56:29.478Z,1.10
2019-01-28T16:58:58.914Z,1.10
2019-01-28T17:01:30.642Z,1.10
2019-01-28T17:04:00.068Z,1.10
2019-01-28T17:06:29.478Z,1.10
2019-01-28T17:08:58.974Z,1.10
2019-01-28T17:11:30.796Z,1.10
2019-01-28T17:14:00.319Z,1.10
2019-01-28T17:16:29.733Z,1.10
2019-01-28T17:18:59.175Z,1.10
2019-01-28T17:21:28.481Z,1.10
2019-01-28T17:24:16.942Z,1.10
2019-01-28T17:26:46.380Z,1.20
2019-01-28T17:29:15.799Z,1.20
2019-01-28T17:31:45.152Z,1.20
2019-01-28T17:34:14.586Z,1.20
2019-01-28T17:36:43.991Z,1.20
2019-01-28T17:39:13.500Z,1.20
2019-01-28T17:41:42.965Z,1.30
2019-01-28T17:44:12.400Z,1.30
2019-01-28T17:46:41.767Z,1.30
2019-01-28T17:49:11.274Z,1.20
2019-01-28T17:51:40.671Z,1.20
2019-01-28T17:54:10.996Z,1.20
2019-01-28T17:56:40.291Z,1.20
2019-01-28T17:59:09.715Z,1.20
2019-01-28T18:01:39.116Z,1.20
2019-01-28T18:04:10.826Z,1.10
2019-01-28T18:06:40.169Z,1.10
2019-01-28T18:09:10.204Z,1.10
2019-01-28T18:11:39.731Z,1.10
2019-01-28T18:14:09.191Z,1.10
2019-01-28T18:16:38.611Z,1.10
2019-01-28T18:19:07.962Z,1.10
2019-01-28T18:21:37.449Z,1.10
2019-01-28T18:24:06.942Z,1.00
2019-01-28T18:26:36.370Z,1.00
2019-01-28T18:29:06.175Z,1.00
2019-01-28T18:31:36.815Z,1.00
2019-01-28T18:34:06.303Z,1.00
2019-01-28T18:36:35.645Z,1.00
2019-01-28T18:39:09.105Z,1.00
2019-01-28T18:41:38.579Z,1.00
2019-01-28T18:44:09.806Z,1.00
2019-01-28T18:46:39.046Z,1.00
2019-01-28T18:49:08.473Z,1.00
2019-01-28T18:51:37.920Z,1.00
2019-01-28T18:54:07.225Z,1.00
2019-01-28T18:56:36.648Z,1.00
2019-01-28T18:59:06.035Z,1.00
2019-01-28T19:01:35.409Z,1.00
2019-01-28T19:04:04.761Z,1.00
2019-01-28T19:06:46.311Z,1.00
2019-01-28T19:09:23.845Z,1.00
2019-01-28T19:12:18.389Z,1.00
2019-01-28T19:14:54.416Z,0.90
2019-01-28T19:17:45.938Z,1.00
2019-01-28T19:20:20.209Z,1.00
2019-01-28T19:22:49.769Z,1.00
2019-01-28T19:25:19.215Z,1.00
2019-01-28T19:27:48.647Z,1.00
2019-01-28T19:30:19.877Z,1.00
2019-01-28T19:32:49.282Z,1.00
2019-01-28T19:35:18.668Z,1.00
2019-01-28T19:37:48.124Z,0.90
2019-01-28T19:40:17.780Z,1.00
2019-01-28T19:42:49.680Z,1.00
2019-01-28T19:45:20.387Z,1.00
2019-01-28T19:47:49.862Z,1.00
2019-01-28T19:50:21.696Z,0.90
2019-01-28T19:52:51.212Z,0.90
2019-01-28T19:55:20.750Z,0.90
2019-01-28T19:57:50.084Z,0.90
2019-01-28T20:00:21.984Z,0.90
2019-01-28T20:02:51.532Z,0.90
2019-01-28T20:05:20.913Z,0.90
2019-01-28T20:07:50.505Z,0.90
2019-01-28T20:10:19.925Z,0.90
2019-01-28T20:12:49.430Z,0.90
2019-01-28T20:15:19.708Z,0.90
2019-01-28T20:17:49.097Z,0.90
2019-01-28T20:20:18.662Z,0.90
2019-01-28T20:22:48.075Z,0.90
2019-01-28T20:25:18.082Z,0.90
2019-01-28T20:27:47.622Z,0.90
2019-01-28T20:30:19.396Z,0.90
2019-01-28T20:32:49.110Z,0.90
2019-01-28T20:35:18.592Z,0.90
2019-01-28T20:37:47.940Z,0.90
2019-01-28T20:40:17.789Z,1.00
2019-01-28T20:42:49.260Z,0.90
2019-01-28T20:45:19.985Z,1.00
2019-01-28T20:47:49.408Z,1.00
2019-01-28T20:50:21.117Z,1.00
2019-01-28T20:52:50.892Z,1.00
2019-01-28T20:55:20.636Z,1.00
2019-01-28T20:57:50.065Z,1.00
2019-01-28T21:00:21.407Z,1.10
2019-01-28T21:02:50.809Z,1.10
2019-01-28T21:05:20.845Z,1.10
2019-01-28T21:07:50.337Z,1.10
2019-01-28T21:10:20.310Z,1.10
2019-01-28T21:12:50.110Z,1.10
2019-01-28T21:15:23.197Z,1.10
2019-01-28T21:17:52.837Z,1.10
2019-01-28T21:20:22.426Z,1.10
2019-01-28T21:22:52.074Z,1.10
2019-01-28T21:25:22.970Z,1.10
2019-01-28T21:27:52.314Z,1.10
2019-01-28T21:30:32.467Z,1.10
2019-01-28T21:33:02.856Z,1.10
2019-01-28T21:36:00.604Z,1.10
2019-01-28T21:41:24.558Z,1.00
2019-01-28T21:43:53.912Z,1.10
2019-01-28T21:46:23.297Z,1.10
2019-01-28T21:48:53.235Z,1.10
2019-01-28T21:54:13.728Z,1.10
2019-01-28T21:57:02.290Z,1.00
2019-01-28T21:59:50.790Z,1.00
2019-01-28T22:02:20.298Z,1.00
2019-01-28T22:04:49.837Z,1.00
2019-01-28T22:07:19.265Z,1.00
2019-01-28T22:09:49.003Z,1.00
2019-01-28T22:12:18.395Z,1.00
2019-01-28T22:14:47.903Z,1.00
2019-01-28T22:17:17.362Z,1.00
2019-01-28T22:19:46.755Z,1.00
2019-01-28T22:22:16.195Z,1.00
2019-01-28T22:24:45.488Z,1.00
2019-01-28T22:27:15.046Z,1.00
2019-01-28T22:29:44.447Z,1.00
2019-01-28T22:32:13.860Z,1.00
2019-01-28T22:34:47.945Z,1.00
2019-01-28T22:37:14.380Z,0.90
2019-01-28T22:39:43.886Z,0.90
2019-01-28T22:42:21.045Z,0.90
2019-01-28T22:44:44.583Z,0.90
2019-01-28T22:47:13.988Z,0.90
2019-01-28T22:49:43.559Z,0.90
2019-01-28T22:52:13.207Z,0.90
2019-01-28T22:54:42.671Z,0.80
2019-01-28T22:57:11.892Z,0.90
2019-01-28T22:59:41.270Z,0.80
2019-01-28T23:02:10.786Z,0.90
2019-01-28T23:04:40.113Z,0.90
2019-01-28T23:07:09.456Z,0.90
2019-01-28T23:09:38.794Z,0.90
2019-01-28T23:12:08.203Z,1.00
2019-01-28T23:14:37.614Z,1.00
2019-01-28T23:17:07.011Z,1.00
2019-01-28T23:19:36.415Z,1.10
2019-01-28T23:22:05.832Z,1.10
2019-01-28T23:24:35.189Z,1.20
2019-01-28T23:27:04.708Z,1.20
2019-01-28T23:29:33.989Z,1.10
2019-01-28T23:32:03.388Z,1.20
2019-01-28T23:34:32.687Z,1.10
2019-01-28T23:37:01.973Z,1.10
2019-01-28T23:39:31.263Z,1.20
2019-01-28T23:42:00.607Z,1.20
2019-01-28T23:44:30.021Z,1.20
2019-01-28T23:46:59.353Z,1.20
2019-01-28T23:49:28.756Z,1.10
2019-01-28T23:51:58.179Z,1.10
2019-01-28T23:54:27.476Z,1.10
2019-01-28T23:56:56.840Z,1.10
2019-01-28T23:59:26.383Z,1.00
